createdAt,value
2019-06-15T00:00:23.428Z,3.65
2019-06-15T00:02:52.509Z,4.15
2019-06-15T00:05:21.268Z,3.87
2019-06-15T00:07:50.023Z,3.27
2019-06-15T00:10:18.724Z,3.52
2019-06-15T00:12:47.527Z,4.55
2019-06-15T00:15:16.422Z,3.62
2019-06-15T00:17:45.113Z,3.50
2019-06-15T00:20:15.355Z,4.15
2019-06-15T00:22:44.162Z,4.50
2019-06-15T00:25:13.797Z,3.40
2019-06-15T00:27:42.512Z,4.37
2019-06-15T00:30:12.294Z,4.33
2019-06-15T00:32:41.032Z,3.40
2019-06-15T00:35:10.214Z,4.22
2019-06-15T00:37:39.002Z,5.37
2019-06-15T00:40:08.533Z,4.08
2019-06-15T00:42:37.223Z,3.70
2019-06-15T00:45:06.594Z,4.28
2019-06-15T00:47:35.306Z,4.65
2019-06-15T00:50:04.475Z,4.58
2019-06-15T00:52:33.188Z,4.08
2019-06-15T00:55:01.854Z,5.17
2019-06-15T00:57:30.568Z,5.37
2019-06-15T00:59:59.337Z,3.67
2019-06-15T01:02:28.110Z,4.17
2019-06-15T01:04:56.811Z,5.60
2019-06-15T01:07:25.658Z,4.55
2019-06-15T01:09:54.413Z,4.95
2019-06-15T01:12:23.184Z,4.03
2019-06-15T01:14:51.887Z,4.17
2019-06-15T01:17:20.614Z,6.58
2019-06-15T01:19:49.304Z,3.90
2019-06-15T01:22:18.061Z,4.60
2019-06-15T01:24:46.785Z,4.90
2019-06-15T01:27:15.484Z,4.28
2019-06-15T01:29:44.308Z,4.42
2019-06-15T01:32:12.988Z,4.90
2019-06-15T01:34:41.679Z,5.07
2019-06-15T01:37:10.391Z,4.50
2019-06-15T01:39:39.089Z,5.35
2019-06-15T01:42:07.765Z,5.17
2019-06-15T01:44:36.494Z,4.53
2019-06-15T01:47:05.302Z,4.62
2019-06-15T01:49:34.010Z,4.45
2019-06-15T01:52:02.752Z,4.85
2019-06-15T01:54:31.433Z,5.20
2019-06-15T01:57:00.154Z,4.33
2019-06-15T01:59:28.934Z,4.55
2019-06-15T02:01:57.615Z,4.67
2019-06-15T02:04:26.281Z,5.90
2019-06-15T02:06:54.995Z,3.90
2019-06-15T02:09:23.715Z,5.20
2019-06-15T02:11:52.426Z,5.15
2019-06-15T02:14:21.161Z,4.30
2019-06-15T02:16:49.856Z,4.40
2019-06-15T02:19:18.539Z,5.25
2019-06-15T02:21:47.261Z,4.50
2019-06-15T02:24:15.957Z,5.37
2019-06-15T02:26:44.662Z,6.42
2019-06-15T02:29:13.423Z,4.50
2019-06-15T02:31:42.201Z,4.35
2019-06-15T02:34:10.911Z,5.60
2019-06-15T02:36:39.622Z,5.85
2019-06-15T02:39:08.300Z,4.53
2019-06-15T02:41:37.232Z,5.15
2019-06-15T02:44:06.422Z,5.42
2019-06-15T02:46:35.210Z,4.40
2019-06-15T02:49:03.905Z,5.05
2019-06-15T02:51:33.124Z,4.25
2019-06-15T02:54:01.806Z,4.80
2019-06-15T02:56:30.485Z,5.45
2019-06-15T02:58:59.276Z,4.80
2019-06-15T03:01:28.039Z,5.65
2019-06-15T03:03:56.746Z,5.62
2019-06-15T03:06:25.947Z,5.42
2019-06-15T03:08:54.722Z,4.62
2019-06-15T03:11:23.418Z,5.58
2019-06-15T03:13:52.884Z,6.33
2019-06-15T03:16:21.662Z,4.87
2019-06-15T03:18:50.360Z,5.05
2019-06-15T03:21:19.111Z,4.70
2019-06-15T03:23:47.815Z,6.08
2019-06-15T03:26:16.523Z,5.60
2019-06-15T03:28:45.281Z,4.62
2019-06-15T03:31:13.975Z,5.20
2019-06-15T03:33:42.654Z,4.87
2019-06-15T03:36:11.391Z,6.10
2019-06-15T03:38:40.077Z,4.55
2019-06-15T03:41:08.775Z,5.30
2019-06-15T03:43:37.494Z,4.75
2019-06-15T03:46:06.165Z,5.05
2019-06-15T03:48:34.849Z,4.97
2019-06-15T03:51:03.653Z,5.65
2019-06-15T03:53:32.353Z,5.67
2019-06-15T03:56:01.037Z,6.17
2019-06-15T03:58:29.754Z,5.20
2019-06-15T04:01:09.012Z,5.37
2019-06-15T04:03:37.792Z,6.20
2019-06-15T04:06:06.501Z,4.55
2019-06-15T04:08:36.273Z,5.80
2019-06-15T04:11:05.111Z,6.03
2019-06-15T04:13:33.888Z,5.15
2019-06-15T04:16:02.597Z,5.62
2019-06-15T04:18:31.467Z,5.72
2019-06-15T04:21:00.154Z,6.35
2019-06-15T04:23:28.843Z,5.25
2019-06-15T04:25:57.549Z,6.35
2019-06-15T04:28:26.225Z,6.20
2019-06-15T04:30:54.931Z,6.17
2019-06-15T04:33:23.749Z,6.87
2019-06-15T04:35:52.425Z,5.90
2019-06-15T04:38:21.131Z,6.03
2019-06-15T04:40:50.787Z,6.70
2019-06-15T04:43:19.505Z,5.87
2019-06-15T04:45:48.203Z,6.40
2019-06-15T04:48:17.029Z,5.07
2019-06-15T04:50:45.750Z,5.60
2019-06-15T04:53:14.961Z,4.93
2019-06-15T04:55:44.110Z,5.10
2019-06-15T04:58:12.813Z,5.12
2019-06-15T05:00:41.541Z,6.58
2019-06-15T05:03:10.399Z,6.50
2019-06-15T05:05:39.155Z,4.80
2019-06-15T05:08:07.860Z,5.55
2019-06-15T05:10:36.579Z,5.00
2019-06-15T05:13:05.273Z,5.30
2019-06-15T05:15:33.989Z,6.70
2019-06-15T05:18:02.735Z,6.15
2019-06-15T05:20:31.444Z,6.50
2019-06-15T05:23:00.191Z,6.62
2019-06-15T05:25:29.000Z,5.30
2019-06-15T05:27:57.670Z,5.47
2019-06-15T05:30:26.433Z,5.05
2019-06-15T05:32:55.271Z,5.78
2019-06-15T05:35:23.951Z,4.90
2019-06-15T05:37:52.670Z,5.35
2019-06-15T05:40:21.779Z,5.17
2019-06-15T05:42:51.910Z,5.30
2019-06-15T05:45:20.680Z,5.15
2019-06-15T05:47:49.493Z,4.50
2019-06-15T05:50:18.455Z,5.42
2019-06-15T05:52:47.132Z,5.10
2019-06-15T05:55:16.277Z,4.75
2019-06-15T05:57:44.965Z,6.30
2019-06-15T06:00:14.473Z,5.10
2019-06-15T06:02:43.174Z,4.65
2019-06-15T06:05:13.589Z,3.65
2019-06-15T06:07:42.301Z,3.65
2019-06-15T06:10:11.659Z,4.90
2019-06-15T06:12:40.337Z,4.45
2019-06-15T06:15:09.091Z,4.87
2019-06-15T06:17:37.830Z,3.70
2019-06-15T06:20:06.664Z,3.67
2019-06-15T06:22:35.336Z,3.80
2019-06-15T06:25:04.552Z,4.05
2019-06-15T06:27:36.624Z,4.37
2019-06-15T06:30:05.006Z,4.73
2019-06-15T06:32:33.790Z,3.95
2019-06-15T06:35:02.603Z,4.23
2019-06-15T06:37:31.328Z,4.42
2019-06-15T06:40:00.056Z,4.17
2019-06-15T06:42:28.745Z,4.87
2019-06-15T06:44:57.486Z,4.47
2019-06-15T06:47:26.330Z,3.67
2019-06-15T06:49:55.021Z,4.20
2019-06-15T06:52:23.780Z,3.77
2019-06-15T06:54:52.569Z,3.60
2019-06-15T06:57:21.406Z,3.50
2019-06-15T06:59:50.125Z,3.67
2019-06-15T07:02:19.025Z,4.95
2019-06-15T07:04:47.806Z,5.30
2019-06-15T07:07:16.488Z,4.55
2019-06-15T07:09:45.268Z,3.77
2019-06-15T07:12:14.048Z,3.72
2019-06-15T07:14:42.815Z,6.13
2019-06-15T07:17:11.865Z,4.35
2019-06-15T07:19:40.579Z,4.45
2019-06-15T07:22:09.790Z,4.27
2019-06-15T07:24:38.665Z,4.50
2019-06-15T07:27:07.377Z,4.30
2019-06-15T07:29:36.156Z,3.83
2019-06-15T07:32:04.913Z,4.83
2019-06-15T07:34:33.632Z,4.65
2019-06-15T07:37:02.368Z,3.40
2019-06-15T07:39:31.132Z,5.37
2019-06-15T07:41:59.883Z,3.72
2019-06-15T07:44:28.595Z,5.00
2019-06-15T07:46:57.345Z,4.05
2019-06-15T07:49:26.065Z,4.67
2019-06-15T07:51:54.749Z,5.23
2019-06-15T07:54:23.509Z,4.53
2019-06-15T07:56:52.246Z,4.60
2019-06-15T07:59:20.934Z,5.62
2019-06-15T08:01:49.685Z,4.53
2019-06-15T08:04:18.378Z,4.35
2019-06-15T08:06:47.078Z,4.03
2019-06-15T08:09:15.814Z,3.50
2019-06-15T08:11:45.923Z,5.22
2019-06-15T08:14:14.793Z,4.30
2019-06-15T08:16:43.548Z,4.43
2019-06-15T08:19:13.120Z,4.87
2019-06-15T08:21:41.875Z,3.95
2019-06-15T08:24:11.449Z,4.28
2019-06-15T08:26:40.984Z,4.55
2019-06-15T08:29:09.682Z,3.80
2019-06-15T08:31:38.425Z,4.33
2019-06-15T08:34:07.154Z,5.40
2019-06-15T08:36:36.081Z,6.05
2019-06-15T08:39:06.356Z,3.40
2019-06-15T08:41:35.190Z,3.42
2019-06-15T08:44:04.586Z,4.53
2019-06-15T08:46:33.301Z,3.85
2019-06-15T08:49:02.135Z,4.70
2019-06-15T08:51:30.909Z,4.70
2019-06-15T08:53:59.663Z,4.20
2019-06-15T08:56:28.427Z,4.65
2019-06-15T08:58:57.210Z,3.93
2019-06-15T09:01:25.957Z,3.50
2019-06-15T09:03:54.627Z,5.23
2019-06-15T09:06:23.481Z,4.23
2019-06-15T09:08:52.247Z,5.17
2019-06-15T09:11:21.018Z,4.50
2019-06-15T09:13:49.797Z,6.75
2019-06-15T09:16:18.628Z,4.45
2019-06-15T09:18:47.411Z,4.80
2019-06-15T09:21:16.173Z,4.25
2019-06-15T09:23:44.921Z,3.92
2019-06-15T09:26:13.605Z,4.30
2019-06-15T09:28:42.301Z,4.47
2019-06-15T09:31:11.030Z,4.05
2019-06-15T09:33:39.741Z,4.87
2019-06-15T09:36:08.488Z,3.77
2019-06-15T09:38:37.249Z,5.50
2019-06-15T09:41:05.996Z,4.92
2019-06-15T09:43:34.753Z,4.72
2019-06-15T09:46:03.563Z,3.95
2019-06-15T09:48:32.247Z,4.00
2019-06-15T09:51:00.997Z,4.08
2019-06-15T09:53:29.838Z,4.17
2019-06-15T09:55:58.539Z,3.85
2019-06-15T09:58:27.213Z,3.73
2019-06-15T10:00:55.944Z,3.92
2019-06-15T10:03:24.657Z,3.80
2019-06-15T10:05:53.437Z,4.22
2019-06-15T10:08:22.125Z,4.15
2019-06-15T10:10:50.809Z,3.60
2019-06-15T10:13:19.522Z,4.42
2019-06-15T10:15:48.325Z,4.30
2019-06-15T10:18:17.012Z,3.80
2019-06-15T10:20:45.686Z,5.33
2019-06-15T10:23:14.413Z,4.60
2019-06-15T10:25:43.086Z,3.83
2019-06-15T10:28:11.788Z,4.25
2019-06-15T10:30:40.539Z,4.70
2019-06-15T10:33:09.224Z,4.07
2019-06-15T10:35:37.902Z,6.17
2019-06-15T10:38:06.680Z,5.30
2019-06-15T10:40:35.393Z,3.98
2019-06-15T10:43:04.234Z,4.65
2019-06-15T10:45:32.994Z,3.87
2019-06-15T10:48:01.752Z,4.72
2019-06-15T10:50:30.533Z,4.23
2019-06-15T10:52:59.321Z,3.93
2019-06-15T10:55:27.986Z,4.28
2019-06-15T10:57:56.677Z,4.40
2019-06-15T11:00:25.697Z,3.90
2019-06-15T11:02:54.395Z,4.47
2019-06-15T11:05:23.923Z,4.12
2019-06-15T11:07:52.659Z,5.65
2019-06-15T11:10:47.428Z,3.95
2019-06-15T11:13:16.232Z,5.50
2019-06-15T11:15:45.275Z,4.22
2019-06-15T11:18:13.961Z,4.42
2019-06-15T11:20:42.688Z,4.07
2019-06-15T11:23:12.345Z,5.42
2019-06-15T11:25:41.175Z,4.42
2019-06-15T11:28:09.898Z,5.03
2019-06-15T11:30:38.593Z,4.47
2019-06-15T11:33:07.282Z,4.17
2019-06-15T11:35:36.001Z,4.87
2019-06-15T11:38:04.753Z,5.22
2019-06-15T11:40:33.445Z,4.67
2019-06-15T11:43:02.209Z,5.12
2019-06-15T11:45:30.931Z,4.60
2019-06-15T11:47:59.989Z,6.45
2019-06-15T11:50:28.755Z,4.60
2019-06-15T11:52:57.493Z,4.87
2019-06-15T11:55:38.623Z,4.62
2019-06-15T11:57:56.624Z,5.55
2019-06-15T12:00:31.560Z,4.70
2019-06-15T12:02:58.805Z,5.37
2019-06-15T12:05:27.628Z,5.55
2019-06-15T12:07:56.356Z,4.95
2019-06-15T12:10:25.128Z,5.12
2019-06-15T12:12:53.840Z,4.60
2019-06-15T12:15:22.560Z,5.83
2019-06-15T12:17:51.329Z,4.33
2019-06-15T12:20:20.233Z,5.40
2019-06-15T12:22:49.182Z,4.55
2019-06-15T12:25:17.932Z,4.95
2019-06-15T12:27:46.660Z,4.33
2019-06-15T12:30:18.545Z,4.42
2019-06-15T12:32:47.263Z,3.67
2019-06-15T12:35:16.057Z,4.85
2019-06-15T12:37:44.874Z,4.22
2019-06-15T12:40:13.635Z,5.67
2019-06-15T12:42:42.368Z,5.08
2019-06-15T12:45:11.054Z,4.00
2019-06-15T12:47:39.749Z,3.83
2019-06-15T12:50:08.831Z,3.83
2019-06-15T12:52:37.538Z,4.55
2019-06-15T12:55:06.276Z,4.22
2019-06-15T12:57:35.037Z,3.98
2019-06-15T13:00:04.279Z,3.02
2019-06-15T13:02:32.926Z,4.62
2019-06-15T13:05:01.662Z,4.28
2019-06-15T13:07:30.341Z,5.62
2019-06-15T13:09:59.011Z,4.33
2019-06-15T13:12:27.718Z,4.12
2019-06-15T13:14:56.381Z,4.17
2019-06-15T13:17:25.129Z,3.58
2019-06-15T13:19:53.835Z,3.65
2019-06-15T13:22:22.541Z,4.28
2019-06-15T13:24:51.378Z,4.13
2019-06-15T13:27:20.102Z,3.65
2019-06-15T13:29:48.783Z,5.67
2019-06-15T13:32:17.457Z,4.75
2019-06-15T13:34:46.186Z,3.92
2019-06-15T13:37:14.870Z,4.37
2019-06-15T13:39:43.631Z,5.55
2019-06-15T13:42:12.379Z,3.87
2019-06-15T13:44:41.103Z,2.77
2019-06-15T13:47:09.840Z,2.25
2019-06-15T13:49:39.562Z,3.05
2019-06-15T13:52:08.287Z,3.37
2019-06-15T13:54:36.968Z,3.30
2019-06-15T13:57:05.677Z,2.50
2019-06-15T13:59:34.349Z,3.70
2019-06-15T14:02:03.038Z,3.33
2019-06-15T14:04:31.775Z,2.52
2019-06-15T14:07:00.509Z,3.60
2019-06-15T14:09:29.205Z,2.37
2019-06-15T14:11:58.151Z,3.60
2019-06-15T14:14:26.926Z,2.37
2019-06-15T14:16:55.693Z,3.00
2019-06-15T14:19:24.427Z,2.20
2019-06-15T14:21:53.111Z,1.95
2019-06-15T14:24:21.769Z,2.05
2019-06-15T14:26:50.487Z,1.42
2019-06-15T14:29:19.191Z,1.75
2019-06-15T14:31:50.572Z,2.87
2019-06-15T14:34:18.365Z,2.37
2019-06-15T14:36:47.062Z,2.45
2019-06-15T14:39:15.762Z,4.40
2019-06-15T14:41:46.901Z,2.03
2019-06-15T14:44:15.077Z,3.00
2019-06-15T14:46:43.770Z,2.90
2019-06-15T14:49:12.521Z,1.70
2019-06-15T14:51:41.271Z,1.77
2019-06-15T14:54:09.998Z,1.25
2019-06-15T14:56:38.762Z,1.87
2019-06-15T14:59:07.446Z,2.60
2019-06-15T15:01:36.141Z,1.65
2019-06-15T15:04:06.281Z,2.70
2019-06-15T15:06:36.866Z,1.90
2019-06-15T15:09:07.240Z,1.80
2019-06-15T15:11:36.724Z,2.10
2019-06-15T15:14:06.683Z,2.22
2019-06-15T15:16:35.856Z,1.70
2019-06-15T15:19:06.112Z,2.47
2019-06-15T15:21:37.172Z,1.87
2019-06-15T15:24:06.265Z,2.17
2019-06-15T15:26:37.055Z,2.45
2019-06-15T15:29:06.981Z,2.15
2019-06-15T15:31:36.321Z,2.92
2019-06-15T15:34:07.692Z,1.60
2019-06-15T15:36:36.875Z,2.10
2019-06-15T15:39:10.106Z,2.47
2019-06-15T15:41:37.027Z,2.90
2019-06-15T15:44:05.686Z,2.83
2019-06-15T15:46:34.416Z,2.17
2019-06-15T15:49:03.269Z,2.47
2019-06-15T15:51:31.997Z,2.47
2019-06-15T15:54:00.833Z,2.35
2019-06-15T15:56:29.621Z,2.60
2019-06-15T15:58:58.623Z,2.43
2019-06-15T16:01:27.422Z,2.53
2019-06-15T16:03:56.343Z,2.20
2019-06-15T16:06:26.062Z,3.08
2019-06-15T16:08:56.887Z,1.97
2019-06-15T16:11:26.643Z,1.65
2019-06-15T16:13:56.479Z,1.72
2019-06-15T16:16:26.667Z,1.90
2019-06-15T16:18:56.205Z,2.40
2019-06-15T16:21:26.073Z,2.80
2019-06-15T16:23:58.081Z,1.50
2019-06-15T16:26:27.153Z,1.32
2019-06-15T16:28:56.358Z,1.92
2019-06-15T16:31:28.901Z,1.75
2019-06-15T16:33:55.686Z,1.50
2019-06-15T16:36:24.370Z,1.70
2019-06-15T16:38:53.093Z,1.60
2019-06-15T16:41:21.828Z,2.12
2019-06-15T16:43:50.510Z,2.27
2019-06-15T16:46:19.289Z,2.05
2019-06-15T16:48:47.972Z,1.60
2019-06-15T16:51:16.902Z,2.70
2019-06-15T16:53:47.383Z,2.77
2019-06-15T16:56:16.822Z,2.40
2019-06-15T16:58:46.875Z,2.43
2019-06-15T17:01:16.825Z,2.10
2019-06-15T17:03:46.957Z,2.10
2019-06-15T17:06:16.191Z,2.60
2019-06-15T17:08:46.485Z,2.55
2019-06-15T17:11:17.277Z,3.50
2019-06-15T17:13:47.484Z,2.30
2019-06-15T17:16:16.874Z,1.90
2019-06-15T17:18:47.058Z,2.87
2019-06-15T17:21:17.031Z,2.05
2019-06-15T17:23:46.691Z,2.08
2019-06-15T17:26:16.810Z,2.15
2019-06-15T17:28:46.060Z,1.72
2019-06-15T17:31:16.591Z,1.93
2019-06-15T17:33:46.880Z,2.15
2019-06-15T17:36:16.285Z,1.90
2019-06-15T17:38:46.295Z,2.90
2019-06-15T17:41:17.336Z,2.35
2019-06-15T17:43:47.414Z,1.80
2019-06-15T17:46:16.603Z,1.57
2019-06-15T17:48:46.693Z,1.30
2019-06-15T17:51:16.200Z,1.50
2019-06-15T17:53:47.489Z,1.10
2019-06-15T17:56:16.931Z,1.57
2019-06-15T17:58:46.340Z,2.00
2019-06-15T18:01:17.217Z,2.20
2019-06-15T18:03:53.828Z,1.70
2019-06-15T18:06:17.497Z,1.80
2019-06-15T18:08:46.582Z,1.35
2019-06-15T18:11:16.556Z,1.70
2019-06-15T18:13:47.241Z,1.50
2019-06-15T18:16:16.249Z,1.40
2019-06-15T18:18:44.951Z,1.55
2019-06-15T18:21:15.800Z,1.32
2019-06-15T18:23:46.454Z,1.20
2019-06-15T18:26:16.163Z,1.50
2019-06-15T18:28:46.908Z,1.60
2019-06-15T18:31:16.333Z,1.70
2019-06-15T18:33:47.379Z,1.37
2019-06-15T18:38:57.722Z,1.07
2019-06-15T18:41:26.677Z,2.30
2019-06-15T18:43:56.490Z,1.40
2019-06-15T18:46:27.327Z,2.52
2019-06-15T18:48:55.841Z,1.75
2019-06-15T18:51:26.892Z,1.50
2019-06-15T18:53:56.184Z,1.55
2019-06-15T18:56:27.142Z,1.60
2019-06-15T18:58:56.277Z,1.37
2019-06-15T19:01:27.044Z,1.33
2019-06-15T19:03:56.375Z,2.40
2019-06-15T19:06:26.457Z,1.10
2019-06-15T19:08:57.495Z,1.27
2019-06-15T19:11:27.357Z,1.45
2019-06-15T19:13:56.444Z,1.12
2019-06-15T19:16:25.308Z,1.20
2019-06-15T19:18:56.542Z,1.00
2019-06-15T19:21:26.062Z,1.47
2019-06-15T19:23:56.481Z,1.10
2019-06-15T19:26:26.895Z,0.88
2019-06-15T19:28:56.019Z,1.47
2019-06-15T19:31:27.629Z,0.98
2019-06-15T19:33:56.807Z,1.05
2019-06-15T19:36:25.824Z,1.15
2019-06-15T19:38:57.003Z,0.88
2019-06-15T19:41:26.625Z,0.95
2019-06-15T19:43:57.069Z,1.05
2019-06-15T19:46:27.827Z,1.50
2019-06-15T19:48:56.578Z,1.05
2019-06-15T19:51:26.466Z,0.82
2019-06-15T19:53:56.574Z,1.00
2019-06-15T19:56:26.034Z,0.90
2019-06-15T19:58:56.551Z,1.00
2019-06-15T20:01:26.244Z,1.30
2019-06-15T20:03:57.337Z,0.93
2019-06-15T20:06:26.022Z,1.65
2019-06-15T20:08:56.293Z,2.05
2019-06-15T20:11:25.454Z,2.50
2019-06-15T20:13:56.158Z,1.22
2019-06-15T20:16:24.574Z,2.92
2019-06-15T20:18:56.107Z,2.98
2019-06-15T20:21:24.174Z,1.70
2019-06-15T20:23:52.946Z,2.70
2019-06-15T20:26:21.631Z,3.15
2019-06-15T20:28:50.345Z,2.65
2019-06-15T20:31:19.075Z,4.47
2019-06-15T20:33:47.760Z,5.42
2019-06-15T20:36:16.545Z,2.42
2019-06-15T20:38:46.874Z,2.10
2019-06-15T20:41:16.354Z,3.10
2019-06-15T20:43:46.025Z,4.30
2019-06-15T20:46:17.087Z,1.73
2019-06-15T20:48:47.023Z,2.73
2019-06-15T20:51:17.331Z,2.60
2019-06-15T20:53:46.291Z,4.87
2019-06-15T20:56:16.927Z,3.15
2019-06-15T20:58:45.388Z,3.02
2019-06-15T21:01:16.341Z,2.35
2019-06-15T21:03:46.845Z,2.97
2019-06-15T21:06:16.916Z,3.30
2019-06-15T21:08:46.991Z,2.90
2019-06-15T21:11:17.043Z,3.27
2019-06-15T21:13:46.833Z,2.50
2019-06-15T21:16:15.847Z,2.15
2019-06-15T21:18:46.666Z,2.70
2019-06-15T21:21:16.002Z,1.90
2019-06-15T21:23:46.298Z,2.10
2019-06-15T21:26:16.439Z,1.75
2019-06-15T21:28:45.501Z,2.05
2019-06-15T21:31:16.562Z,2.10
2019-06-15T21:33:46.760Z,4.30
2019-06-15T21:36:15.110Z,1.80
2019-06-15T21:38:46.637Z,1.30
2019-06-15T21:41:16.552Z,1.50
2019-06-15T21:43:47.101Z,1.57
2019-06-15T21:46:16.834Z,2.12
2019-06-15T21:48:46.895Z,1.40
2019-06-15T21:51:16.565Z,1.30
2019-06-15T21:53:46.957Z,1.47
2019-06-15T21:56:16.174Z,3.25
2019-06-15T21:58:44.929Z,0.85
2019-06-15T22:01:26.066Z,0.90
2019-06-15T22:03:54.369Z,0.70
2019-06-15T22:06:23.048Z,0.60
2019-06-15T22:08:51.830Z,1.02
2019-06-15T22:11:20.544Z,1.10
2019-06-15T22:13:49.236Z,0.82
2019-06-15T22:16:17.993Z,0.90
2019-06-15T22:18:47.450Z,0.90
2019-06-15T22:21:16.812Z,0.88
2019-06-15T22:23:47.296Z,1.10
2019-06-15T22:26:17.389Z,0.80
2019-06-15T22:28:47.038Z,0.60
2019-06-15T22:31:17.150Z,1.05
2019-06-15T22:33:47.312Z,0.53
2019-06-15T22:36:24.792Z,0.42
2019-06-15T22:38:47.004Z,0.40
2019-06-15T22:41:16.763Z,0.62
2019-06-15T22:43:46.361Z,0.50
2019-06-15T22:46:16.592Z,1.72
2019-06-15T22:48:46.999Z,0.45
2019-06-15T22:51:16.823Z,0.50
2019-06-15T22:53:47.169Z,0.57
2019-06-15T22:56:17.054Z,0.40
2019-06-15T22:58:46.343Z,0.70
2019-06-15T23:01:16.942Z,0.40
2019-06-15T23:03:46.584Z,0.40
2019-06-15T23:06:16.261Z,0.60
2019-06-15T23:08:46.970Z,1.10
2019-06-15T23:11:17.391Z,0.33
2019-06-15T23:13:46.428Z,0.40
2019-06-15T23:16:15.290Z,0.57
2019-06-15T23:18:46.569Z,0.35
2019-06-15T23:21:17.073Z,0.80
2019-06-15T23:23:47.047Z,0.40
2019-06-15T23:26:16.585Z,0.40
2019-06-15T23:28:46.794Z,0.37
2019-06-15T23:31:16.686Z,0.70
2019-06-15T23:33:46.776Z,1.70
2019-06-15T23:36:21.393Z,0.40
2019-06-15T23:38:50.067Z,0.60
2019-06-15T23:41:18.772Z,0.40
2019-06-15T23:43:47.587Z,0.33
2019-06-15T23:46:16.556Z,0.50
2019-06-15T23:48:47.008Z,0.37
2019-06-15T23:51:17.015Z,0.40
2019-06-15T23:53:46.349Z,0.60
2019-06-15T23:56:15.185Z,0.40
2019-06-15T23:58:46.196Z,0.40
